• 1
  • 2
  • 1

 

 

WebCam

  
Kamera Halle
Kamera Vorfeld
Wetter EDDS

METAR

EDDS 172250Z VRB02KT CAVOK 16/11 Q1013 =
EDDS 171700Z 1718/1818 33009KT CAVOK BECMG 1719/1721 VRB03KT BECMG 1808/1810 31005KT


TAF

EDDS 171700Z 1718/1818 33009KT CAVOK BECMG 1719/1721 VRB03KT BECMG 1808/1810 31005KT =


SR/SS

03:38 / 19:17 UTC
(EDSO 18-07-2019)